sensor_id;sensor_type;location;lat;lon;timestamp;temperature;humidity
10336;DHT22;5213;53.548;9.930;2024-03-22T00:00:20;8.30;1.00
10336;DHT22;5213;53.548;9.930;2024-03-22T00:02:46;8.50;1.00
10336;DHT22;5213;53.548;9.930;2024-03-22T00:05:12;8.50;1.00
10336;DHT22;5213;53.548;9.930;2024-03-22T00:07:42;8.90;1.00
10336;DHT22;5213;53.548;9.930;2024-03-22T00:10:07;8.50;1.00
10336;DHT22;5213;53.548;9.930;2024-03-22T00:12:33;8.50;1.00
10336;DHT22;5213;53.548;9.930;2024-03-22T00:14:58;8.70;1.00
10336;DHT22;5213;53.548;9.930;2024-03-22T00:17:24;8.50;1.00
10336;DHT22;5213;53.548;9.930;2024-03-22T00:19:50;8.60;1.00
10336;DHT22;5213;53.548;9.930;2024-03-22T00:22:15;8.60;1.00
10336;DHT22;5213;53.548;9.930;2024-03-22T00:24:41;6.90;1.00
10336;DHT22;5213;53.548;9.930;2024-03-22T00:27:07;8.60;1.00
10336;DHT22;5213;53.548;9.930;2024-03-22T00:29:32;8.60;1.00
10336;DHT22;5213;53.548;9.930;2024-03-22T00:31:58;8.60;1.00
10336;DHT22;5213;53.548;9.930;2024-03-22T00:34:24;8.70;1.00
10336;DHT22;5213;53.548;9.930;2024-03-22T00:36:49;8.70;1.00
10336;DHT22;5213;53.548;9.930;2024-03-22T00:39:16;8.70;1.00
10336;DHT22;5213;53.548;9.930;2024-03-22T00:41:42;8.70;1.00
10336;DHT22;5213;53.548;9.930;2024-03-22T00:44:08;8.70;1.00
10336;DHT22;5213;53.548;9.930;2024-03-22T00:46:33;8.50;1.00
10336;DHT22;5213;53.548;9.930;2024-03-22T00:48:59;8.70;1.00
10336;DHT22;5213;53.548;9.930;2024-03-22T00:51:25;8.70;1.00
10336;DHT22;5213;53.548;9.930;2024-03-22T00:53:51;8.70;1.00
10336;DHT22;5213;53.548;9.930;2024-03-22T00:56:17;8.70;1.00
10336;DHT22;5213;53.548;9.930;2024-03-22T00:58:42;8.70;1.00
10336;DHT22;5213;53.548;9.930;2024-03-22T01:01:08;8.70;1.00
10336;DHT22;5213;53.548;9.930;2024-03-22T01:03:34;8.70;1.00
10336;DHT22;5213;53.548;9.930;2024-03-22T01:05:59;8.70;1.00
10336;DHT22;5213;53.548;9.930;2024-03-22T01:08:25;8.80;1.00
10336;DHT22;5213;53.548;9.930;2024-03-22T01:10:50;8.70;1.00
10336;DHT22;5213;53.548;9.930;2024-03-22T01:13:16;9.00;1.00
10336;DHT22;5213;53.548;9.930;2024-03-22T01:15:42;8.70;1.00
10336;DHT22;5213;53.548;9.930;2024-03-22T01:18:08;8.70;1.00
10336;DHT22;5213;53.548;9.930;2024-03-22T01:20:34;8.70;1.00
10336;DHT22;5213;53.548;9.930;2024-03-22T01:23:00;8.70;1.00
10336;DHT22;5213;53.548;9.930;2024-03-22T01:25:30;8.70;1.00
10336;DHT22;5213;53.548;9.930;2024-03-22T01:27:56;8.70;1.00
10336;DHT22;5213;53.548;9.930;2024-03-22T01:30:21;8.60;1.00
10336;DHT22;5213;53.548;9.930;2024-03-22T01:32:47;8.90;1.00
10336;DHT22;5213;53.548;9.930;2024-03-22T01:35:13;8.70;1.00
10336;DHT22;5213;53.548;9.930;2024-03-22T01:37:38;8.70;1.00
10336;DHT22;5213;53.548;9.930;2024-03-22T01:40:04;8.30;1.00
10336;DHT22;5213;53.548;9.930;2024-03-22T01:42:30;8.70;1.00
10336;DHT22;5213;53.548;9.930;2024-03-22T01:44:56;8.70;1.00
10336;DHT22;5213;53.548;9.930;2024-03-22T01:47:22;8.90;1.00
10336;DHT22;5213;53.548;9.930;2024-03-22T01:49:49;8.10;1.00
10336;DHT22;5213;53.548;9.930;2024-03-22T01:52:16;8.80;1.00
10336;DHT22;5213;53.548;9.930;2024-03-22T01:54:41;8.80;1.00
10336;DHT22;5213;53.548;9.930;2024-03-22T01:57:08;8.80;1.00
10336;DHT22;5213;53.548;9.930;2024-03-22T01:59:34;8.80;1.00
10336;DHT22;5213;53.548;9.930;2024-03-22T02:02:00;8.90;1.00
10336;DHT22;5213;53.548;9.930;2024-03-22T02:04:25;8.90;1.00
10336;DHT22;5213;53.548;9.930;2024-03-22T02:06:51;8.90;1.00
10336;DHT22;5213;53.548;9.930;2024-03-22T02:09:17;8.80;1.00
10336;DHT22;5213;53.548;9.930;2024-03-22T02:11:43;8.10;1.00
10336;DHT22;5213;53.548;9.930;2024-03-22T02:14:08;8.90;1.00
10336;DHT22;5213;53.548;9.930;2024-03-22T02:16:34;8.90;1.00
10336;DHT22;5213;53.548;9.930;2024-03-22T02:18:59;8.80;1.00
10336;DHT22;5213;53.548;9.930;2024-03-22T02:21:25;8.90;1.00
10336;DHT22;5213;53.548;9.930;2024-03-22T02:23:50;8.10;1.00
10336;DHT22;5213;53.548;9.930;2024-03-22T02:26:16;9.10;1.00
10336;DHT22;5213;53.548;9.930;2024-03-22T02:28:42;8.90;1.00
10336;DHT22;5213;53.548;9.930;2024-03-22T02:31:07;8.90;1.00
10336;DHT22;5213;53.548;9.930;2024-03-22T02:33:33;9.00;1.00
10336;DHT22;5213;53.548;9.930;2024-03-22T02:35:58;9.00;1.00
10336;DHT22;5213;53.548;9.930;2024-03-22T02:38:24;9.70;1.00
10336;DHT22;5213;53.548;9.930;2024-03-22T02:40:52;9.00;1.00
10336;DHT22;5213;53.548;9.930;2024-03-22T02:43:18;8.30;1.00
10336;DHT22;5213;53.548;9.930;2024-03-22T02:45:44;9.20;1.00
10336;DHT22;5213;53.548;9.930;2024-03-22T02:48:11;8.90;1.00
10336;DHT22;5213;53.548;9.930;2024-03-22T02:50:37;8.80;1.00
10336;DHT22;5213;53.548;9.930;2024-03-22T02:53:04;8.80;1.00
10336;DHT22;5213;53.548;9.930;2024-03-22T02:55:30;9.30;1.00
10336;DHT22;5213;53.548;9.930;2024-03-22T02:57:56;8.80;1.00
10336;DHT22;5213;53.548;9.930;2024-03-22T03:00:22;10.80;1.00
10336;DHT22;5213;53.548;9.930;2024-03-22T03:02:48;8.90;1.00
10336;DHT22;5213;53.548;9.930;2024-03-22T03:05:14;9.00;1.00
10336;DHT22;5213;53.548;9.930;2024-03-22T03:07:40;9.10;1.00
10336;DHT22;5213;53.548;9.930;2024-03-22T03:10:06;9.10;1.00
10336;DHT22;5213;53.548;9.930;2024-03-22T03:12:32;9.10;1.00
10336;DHT22;5213;53.548;9.930;2024-03-22T03:14:57;9.30;1.00
10336;DHT22;5213;53.548;9.930;2024-03-22T03:17:23;9.20;1.00
10336;DHT22;5213;53.548;9.930;2024-03-22T03:19:49;9.50;1.00
10336;DHT22;5213;53.548;9.930;2024-03-22T03:22:14;8.90;1.00
10336;DHT22;5213;53.548;9.930;2024-03-22T03:24:40;9.10;1.00
10336;DHT22;5213;53.548;9.930;2024-03-22T03:27:06;9.00;1.00
10336;DHT22;5213;53.548;9.930;2024-03-22T03:29:32;8.80;1.00
10336;DHT22;5213;53.548;9.930;2024-03-22T03:31:58;8.80;1.00
10336;DHT22;5213;53.548;9.930;2024-03-22T03:34:23;9.50;1.00
10336;DHT22;5213;53.548;9.930;2024-03-22T03:36:49;9.00;1.00
10336;DHT22;5213;53.548;9.930;2024-03-22T03:39:14;9.10;1.00
10336;DHT22;5213;53.548;9.930;2024-03-22T03:41:40;8.90;1.00
10336;DHT22;5213;53.548;9.930;2024-03-22T03:44:06;9.70;1.00
10336;DHT22;5213;53.548;9.930;2024-03-22T03:46:31;9.20;1.00
10336;DHT22;5213;53.548;9.930;2024-03-22T03:48:57;9.00;1.00
10336;DHT22;5213;53.548;9.930;2024-03-22T03:51:23;9.20;1.00
10336;DHT22;5213;53.548;9.930;2024-03-22T03:53:48;9.00;1.00
10336;DHT22;5213;53.548;9.930;2024-03-22T03:56:14;9.00;1.00
10336;DHT22;5213;53.548;9.930;2024-03-22T03:58:39;9.20;1.00
10336;DHT22;5213;53.548;9.930;2024-03-22T04:01:06;9.40;1.00
10336;DHT22;5213;53.548;9.930;2024-03-22T04:03:32;9.20;1.00
10336;DHT22;5213;53.548;9.930;2024-03-22T04:05:58;9.20;1.00
10336;DHT22;5213;53.548;9.930;2024-03-22T04:08:27;8.90;1.00
10336;DHT22;5213;53.548;9.930;2024-03-22T04:10:54;9.30;1.00
10336;DHT22;5213;53.548;9.930;2024-03-22T04:13:25;9.00;1.00
10336;DHT22;5213;53.548;9.930;2024-03-22T04:15:51;9.30;1.00
10336;DHT22;5213;53.548;9.930;2024-03-22T04:18:17;9.30;1.00
10336;DHT22;5213;53.548;9.930;2024-03-22T04:20:43;9.30;1.00
10336;DHT22;5213;53.548;9.930;2024-03-22T04:23:11;8.80;1.00
10336;DHT22;5213;53.548;9.930;2024-03-22T04:25:37;8.60;1.00
10336;DHT22;5213;53.548;9.930;2024-03-22T04:28:02;8.80;1.00
10336;DHT22;5213;53.548;9.930;2024-03-22T04:30:28;9.40;1.00
10336;DHT22;5213;53.548;9.930;2024-03-22T04:32:54;10.00;1.00
10336;DHT22;5213;53.548;9.930;2024-03-22T04:35:19;9.40;1.00
10336;DHT22;5213;53.548;9.930;2024-03-22T04:37:45;9.40;1.00
10336;DHT22;5213;53.548;9.930;2024-03-22T04:40:11;8.90;1.00
10336;DHT22;5213;53.548;9.930;2024-03-22T04:42:37;9.40;1.00
10336;DHT22;5213;53.548;9.930;2024-03-22T04:45:02;9.20;1.00
10336;DHT22;5213;53.548;9.930;2024-03-22T04:47:28;9.40;1.00
10336;DHT22;5213;53.548;9.930;2024-03-22T04:49:54;9.40;1.00
10336;DHT22;5213;53.548;9.930;2024-03-22T04:52:20;9.30;1.00
10336;DHT22;5213;53.548;9.930;2024-03-22T04:54:46;9.40;1.00
10336;DHT22;5213;53.548;9.930;2024-03-22T04:57:13;9.50;1.00
10336;DHT22;5213;53.548;9.930;2024-03-22T04:59:38;9.80;1.00
10336;DHT22;5213;53.548;9.930;2024-03-22T05:02:04;9.40;1.00
10336;DHT22;5213;53.548;9.930;2024-03-22T05:04:29;9.40;1.00
10336;DHT22;5213;53.548;9.930;2024-03-22T05:06:55;9.40;1.00
10336;DHT22;5213;53.548;9.930;2024-03-22T05:09:21;9.40;1.00
10336;DHT22;5213;53.548;9.930;2024-03-22T05:11:46;9.50;1.00
10336;DHT22;5213;53.548;9.930;2024-03-22T05:14:15;9.50;1.00
10336;DHT22;5213;53.548;9.930;2024-03-22T05:16:41;9.50;1.00
10336;DHT22;5213;53.548;9.930;2024-03-22T05:19:06;9.50;1.00
10336;DHT22;5213;53.548;9.930;2024-03-22T05:21:32;9.70;1.00
10336;DHT22;5213;53.548;9.930;2024-03-22T05:23:57;9.50;1.00
10336;DHT22;5213;53.548;9.930;2024-03-22T05:26:23;9.50;1.00
10336;DHT22;5213;53.548;9.930;2024-03-22T05:28:49;9.50;1.00
10336;DHT22;5213;53.548;9.930;2024-03-22T05:31:14;9.50;1.00
10336;DHT22;5213;53.548;9.930;2024-03-22T05:33:40;9.60;1.00
10336;DHT22;5213;53.548;9.930;2024-03-22T05:36:06;9.50;1.00
10336;DHT22;5213;53.548;9.930;2024-03-22T05:38:31;9.60;1.00
10336;DHT22;5213;53.548;9.930;2024-03-22T05:40:57;9.60;1.00
10336;DHT22;5213;53.548;9.930;2024-03-22T05:43:22;9.30;1.00
10336;DHT22;5213;53.548;9.930;2024-03-22T05:45:48;9.60;1.00
10336;DHT22;5213;53.548;9.930;2024-03-22T05:48:14;9.60;1.00
10336;DHT22;5213;53.548;9.930;2024-03-22T05:50:40;9.20;1.00
10336;DHT22;5213;53.548;9.930;2024-03-22T05:53:06;10.50;1.00
10336;DHT22;5213;53.548;9.930;2024-03-22T05:55:31;9.60;1.00
10336;DHT22;5213;53.548;9.930;2024-03-22T05:57:57;9.60;1.00
10336;DHT22;5213;53.548;9.930;2024-03-22T06:00:23;9.70;1.00
10336;DHT22;5213;53.548;9.930;2024-03-22T06:02:49;9.70;1.00
10336;DHT22;5213;53.548;9.930;2024-03-22T06:05:14;9.70;1.00
10336;DHT22;5213;53.548;9.930;2024-03-22T06:07:40;9.70;1.00
10336;DHT22;5213;53.548;9.930;2024-03-22T06:10:08;9.70;1.00
10336;DHT22;5213;53.548;9.930;2024-03-22T06:12:35;9.80;1.00
10336;DHT22;5213;53.548;9.930;2024-03-22T06:15:01;9.90;1.00
10336;DHT22;5213;53.548;9.930;2024-03-22T06:17:27;9.90;1.00
10336;DHT22;5213;53.548;9.930;2024-03-22T06:19:52;9.90;1.00
10336;DHT22;5213;53.548;9.930;2024-03-22T06:22:18;10.00;1.00
10336;DHT22;5213;53.548;9.930;2024-03-22T06:24:44;10.00;1.00
10336;DHT22;5213;53.548;9.930;2024-03-22T06:27:10;10.00;1.00
10336;DHT22;5213;53.548;9.930;2024-03-22T06:29:36;10.00;1.00
10336;DHT22;5213;53.548;9.930;2024-03-22T06:32:01;10.10;1.00
10336;DHT22;5213;53.548;9.930;2024-03-22T06:34:27;10.10;1.00
10336;DHT22;5213;53.548;9.930;2024-03-22T06:36:52;10.10;1.00
10336;DHT22;5213;53.548;9.930;2024-03-22T06:39:18;10.90;1.00
10336;DHT22;5213;53.548;9.930;2024-03-22T06:41:45;10.20;1.00
10336;DHT22;5213;53.548;9.930;2024-03-22T06:44:10;9.60;1.00
10336;DHT22;5213;53.548;9.930;2024-03-22T06:46:37;10.30;1.00
10336;DHT22;5213;53.548;9.930;2024-03-22T06:49:03;10.40;1.00
10336;DHT22;5213;53.548;9.930;2024-03-22T06:51:29;10.40;1.00
10336;DHT22;5213;53.548;9.930;2024-03-22T06:53:54;10.00;1.00
10336;DHT22;5213;53.548;9.930;2024-03-22T06:56:20;10.10;1.00
10336;DHT22;5213;53.548;9.930;2024-03-22T06:58:46;10.50;1.00
10336;DHT22;5213;53.548;9.930;2024-03-22T07:01:12;10.40;1.00
10336;DHT22;5213;53.548;9.930;2024-03-22T07:03:37;10.60;1.00
10336;DHT22;5213;53.548;9.930;2024-03-22T07:06:03;10.60;1.00
10336;DHT22;5213;53.548;9.930;2024-03-22T07:08:29;10.60;1.00
10336;DHT22;5213;53.548;9.930;2024-03-22T07:10:55;10.50;1.00
10336;DHT22;5213;53.548;9.930;2024-03-22T07:13:21;10.70;1.00
10336;DHT22;5213;53.548;9.930;2024-03-22T07:15:47;11.00;1.00
10336;DHT22;5213;53.548;9.930;2024-03-22T07:18:13;10.70;1.00
10336;DHT22;5213;53.548;9.930;2024-03-22T07:20:39;10.80;1.00
10336;DHT22;5213;53.548;9.930;2024-03-22T07:23:05;10.90;1.00
10336;DHT22;5213;53.548;9.930;2024-03-22T07:25:30;10.90;1.00
10336;DHT22;5213;53.548;9.930;2024-03-22T07:27:57;10.90;1.00
10336;DHT22;5213;53.548;9.930;2024-03-22T07:30:22;10.80;1.00
10336;DHT22;5213;53.548;9.930;2024-03-22T07:32:48;10.50;1.00
10336;DHT22;5213;53.548;9.930;2024-03-22T07:35:14;10.90;1.00
10336;DHT22;5213;53.548;9.930;2024-03-22T07:37:39;10.90;1.00
10336;DHT22;5213;53.548;9.930;2024-03-22T07:40:06;10.90;1.00
10336;DHT22;5213;53.548;9.930;2024-03-22T07:42:31;10.90;1.00
10336;DHT22;5213;53.548;9.930;2024-03-22T07:44:57;10.90;1.00
10336;DHT22;5213;53.548;9.930;2024-03-22T07:47:23;10.90;1.00
10336;DHT22;5213;53.548;9.930;2024-03-22T07:49:50;10.90;1.00
10336;DHT22;5213;53.548;9.930;2024-03-22T07:52:15;10.90;1.00
10336;DHT22;5213;53.548;9.930;2024-03-22T07:54:41;10.90;1.00
10336;DHT22;5213;53.548;9.930;2024-03-22T07:57:06;10.60;1.00
10336;DHT22;5213;53.548;9.930;2024-03-22T07:59:32;11.50;1.00
10336;DHT22;5213;53.548;9.930;2024-03-22T08:01:58;11.20;1.00
10336;DHT22;5213;53.548;9.930;2024-03-22T08:04:23;10.70;1.00
10336;DHT22;5213;53.548;9.930;2024-03-22T08:06:50;10.60;1.00
10336;DHT22;5213;53.548;9.930;2024-03-22T08:09:17;10.80;1.00
10336;DHT22;5213;53.548;9.930;2024-03-22T08:11:44;10.80;1.00
10336;DHT22;5213;53.548;9.930;2024-03-22T08:14:09;10.90;1.00
10336;DHT22;5213;53.548;9.930;2024-03-22T08:16:35;11.10;1.00
10336;DHT22;5213;53.548;9.930;2024-03-22T08:19:00;11.20;1.00
10336;DHT22;5213;53.548;9.930;2024-03-22T08:21:26;11.20;1.00
10336;DHT22;5213;53.548;9.930;2024-03-22T08:23:52;11.10;1.00
10336;DHT22;5213;53.548;9.930;2024-03-22T08:26:18;11.70;1.00
10336;DHT22;5213;53.548;9.930;2024-03-22T08:28:45;11.10;1.00
10336;DHT22;5213;53.548;9.930;2024-03-22T08:31:11;11.20;1.00
10336;DHT22;5213;53.548;9.930;2024-03-22T08:33:36;11.00;1.00
10336;DHT22;5213;53.548;9.930;2024-03-22T08:36:02;11.10;1.00
10336;DHT22;5213;53.548;9.930;2024-03-22T08:38:28;11.20;1.00
10336;DHT22;5213;53.548;9.930;2024-03-22T08:40:54;11.50;1.00
10336;DHT22;5213;53.548;9.930;2024-03-22T08:43:20;10.80;1.00
10336;DHT22;5213;53.548;9.930;2024-03-22T08:45:48;12.10;1.00
10336;DHT22;5213;53.548;9.930;2024-03-22T08:48:13;11.00;1.00
10336;DHT22;5213;53.548;9.930;2024-03-22T08:50:41;12.10;1.00
10336;DHT22;5213;53.548;9.930;2024-03-22T08:53:07;10.90;1.00
10336;DHT22;5213;53.548;9.930;2024-03-22T08:55:33;10.70;1.00
10336;DHT22;5213;53.548;9.930;2024-03-22T08:57:58;11.00;1.00
10336;DHT22;5213;53.548;9.930;2024-03-22T09:00:24;10.60;1.00
10336;DHT22;5213;53.548;9.930;2024-03-22T09:02:49;11.00;1.00
10336;DHT22;5213;53.548;9.930;2024-03-22T09:05:15;10.60;1.00
10336;DHT22;5213;53.548;9.930;2024-03-22T09:07:41;10.70;1.00
10336;DHT22;5213;53.548;9.930;2024-03-22T09:10:06;10.40;1.00
10336;DHT22;5213;53.548;9.930;2024-03-22T09:12:32;10.70;1.00
10336;DHT22;5213;53.548;9.930;2024-03-22T09:14:58;10.70;1.00
10336;DHT22;5213;53.548;9.930;2024-03-22T09:17:23;10.50;1.00
10336;DHT22;5213;53.548;9.930;2024-03-22T09:19:49;10.40;1.00
10336;DHT22;5213;53.548;9.930;2024-03-22T09:22:15;10.60;1.00
10336;DHT22;5213;53.548;9.930;2024-03-22T09:24:40;10.40;1.00
10336;DHT22;5213;53.548;9.930;2024-03-22T09:27:06;11.30;1.00
10336;DHT22;5213;53.548;9.930;2024-03-22T09:29:36;11.20;1.00
10336;DHT22;5213;53.548;9.930;2024-03-22T09:32:02;10.90;1.00
10336;DHT22;5213;53.548;9.930;2024-03-22T09:34:28;10.80;1.00
10336;DHT22;5213;53.548;9.930;2024-03-22T09:36:55;10.90;1.00
10336;DHT22;5213;53.548;9.930;2024-03-22T09:39:21;11.00;1.00
10336;DHT22;5213;53.548;9.930;2024-03-22T09:41:47;10.90;1.00
10336;DHT22;5213;53.548;9.930;2024-03-22T09:44:14;11.20;1.00
10336;DHT22;5213;53.548;9.930;2024-03-22T09:46:42;10.70;1.00
10336;DHT22;5213;53.548;9.930;2024-03-22T09:49:10;10.50;1.00
10336;DHT22;5213;53.548;9.930;2024-03-22T09:51:37;11.30;1.00
10336;DHT22;5213;53.548;9.930;2024-03-22T09:54:03;10.90;1.00
10336;DHT22;5213;53.548;9.930;2024-03-22T09:56:30;10.50;1.00
10336;DHT22;5213;53.548;9.930;2024-03-22T09:58:57;10.40;28.40
10336;DHT22;5213;53.548;9.930;2024-03-22T10:01:24;10.40;90.70
10336;DHT22;5213;53.548;9.930;2024-03-22T10:03:51;11.20;99.90
10336;DHT22;5213;53.548;9.930;2024-03-22T10:06:18;10.70;99.90
10336;DHT22;5213;53.548;9.930;2024-03-22T10:08:44;10.90;99.90
10336;DHT22;5213;53.548;9.930;2024-03-22T10:11:10;10.40;99.90
10336;DHT22;5213;53.548;9.930;2024-03-22T10:13:36;10.10;99.90
10336;DHT22;5213;53.548;9.930;2024-03-22T10:16:01;10.40;99.90
10336;DHT22;5213;53.548;9.930;2024-03-22T10:18:27;10.40;99.90
10336;DHT22;5213;53.548;9.930;2024-03-22T10:21:19;10.80;99.90
10336;DHT22;5213;53.548;9.930;2024-03-22T10:23:46;11.50;99.90
10336;DHT22;5213;53.548;9.930;2024-03-22T10:26:14;10.60;99.90
10336;DHT22;5213;53.548;9.930;2024-03-22T10:28:46;10.50;99.90
10336;DHT22;5213;53.548;9.930;2024-03-22T10:31:13;10.20;99.90
10336;DHT22;5213;53.548;9.930;2024-03-22T10:33:40;10.50;99.90
10336;DHT22;5213;53.548;9.930;2024-03-22T10:36:06;10.70;99.90
10336;DHT22;5213;53.548;9.930;2024-03-22T10:38:35;10.40;99.90
10336;DHT22;5213;53.548;9.930;2024-03-22T10:41:01;10.10;99.90
10336;DHT22;5213;53.548;9.930;2024-03-22T10:43:28;10.40;99.90
10336;DHT22;5213;53.548;9.930;2024-03-22T10:45:56;10.60;99.90
10336;DHT22;5213;53.548;9.930;2024-03-22T10:48:28;10.90;99.90
10336;DHT22;5213;53.548;9.930;2024-03-22T10:50:55;10.20;99.90
10336;DHT22;5213;53.548;9.930;2024-03-22T10:53:24;10.40;99.90
10336;DHT22;5213;53.548;9.930;2024-03-22T10:55:53;10.10;99.90
10336;DHT22;5213;53.548;9.930;2024-03-22T10:58:24;10.20;99.90
10336;DHT22;5213;53.548;9.930;2024-03-22T11:00:54;10.30;99.90
10336;DHT22;5213;53.548;9.930;2024-03-22T11:03:24;11.10;99.90
10336;DHT22;5213;53.548;9.930;2024-03-22T11:05:54;11.20;99.90
10336;DHT22;5213;53.548;9.930;2024-03-22T11:08:27;11.00;99.90
10336;DHT22;5213;53.548;9.930;2024-03-22T11:10:53;10.20;99.90
10336;DHT22;5213;53.548;9.930;2024-03-22T11:13:19;10.30;99.90
10336;DHT22;5213;53.548;9.930;2024-03-22T11:15:50;10.40;99.90
10336;DHT22;5213;53.548;9.930;2024-03-22T11:18:17;10.60;99.90
10336;DHT22;5213;53.548;9.930;2024-03-22T11:20:43;10.50;99.90
10336;DHT22;5213;53.548;9.930;2024-03-22T11:23:10;10.60;99.90
10336;DHT22;5213;53.548;9.930;2024-03-22T11:25:36;10.60;99.90
10336;DHT22;5213;53.548;9.930;2024-03-22T11:28:02;10.60;94.00
10336;DHT22;5213;53.548;9.930;2024-03-22T11:30:29;10.60;95.70
10336;DHT22;5213;53.548;9.930;2024-03-22T11:32:55;10.30;54.50
10336;DHT22;5213;53.548;9.930;2024-03-22T11:35:21;10.20;41.60
10336;DHT22;5213;53.548;9.930;2024-03-22T11:37:46;9.80;1.00
10336;DHT22;5213;53.548;9.930;2024-03-22T11:40:12;12.20;1.00
10336;DHT22;5213;53.548;9.930;2024-03-22T11:42:39;10.90;1.00
10336;DHT22;5213;53.548;9.930;2024-03-22T11:45:10;10.80;1.00
10336;DHT22;5213;53.548;9.930;2024-03-22T11:47:36;11.00;1.00
10336;DHT22;5213;53.548;9.930;2024-03-22T11:50:02;11.80;1.00
10336;DHT22;5213;53.548;9.930;2024-03-22T11:52:29;11.00;1.00
10336;DHT22;5213;53.548;9.930;2024-03-22T11:54:55;11.10;1.00
10336;DHT22;5213;53.548;9.930;2024-03-22T11:57:21;11.30;1.00
10336;DHT22;5213;53.548;9.930;2024-03-22T11:59:47;12.20;1.00
10336;DHT22;5213;53.548;9.930;2024-03-22T12:02:13;11.10;1.00
10336;DHT22;5213;53.548;9.930;2024-03-22T12:04:56;11.30;1.00
10336;DHT22;5213;53.548;9.930;2024-03-22T12:07:23;11.20;1.00
10336;DHT22;5213;53.548;9.930;2024-03-22T12:09:49;11.00;1.00
10336;DHT22;5213;53.548;9.930;2024-03-22T12:12:14;10.80;1.00
10336;DHT22;5213;53.548;9.930;2024-03-22T12:14:40;11.00;1.00
10336;DHT22;5213;53.548;9.930;2024-03-22T12:17:07;10.90;1.00
10336;DHT22;5213;53.548;9.930;2024-03-22T12:19:33;11.20;1.00
10336;DHT22;5213;53.548;9.930;2024-03-22T12:21:59;10.70;1.00
10336;DHT22;5213;53.548;9.930;2024-03-22T12:24:26;10.80;1.00
10336;DHT22;5213;53.548;9.930;2024-03-22T12:26:52;10.90;1.00
10336;DHT22;5213;53.548;9.930;2024-03-22T12:29:18;10.70;4.00
10336;DHT22;5213;53.548;9.930;2024-03-22T12:31:44;10.10;32.00
10336;DHT22;5213;53.548;9.930;2024-03-22T12:34:10;10.50;97.70
10336;DHT22;5213;53.548;9.930;2024-03-22T12:36:36;10.50;99.90
10336;DHT22;5213;53.548;9.930;2024-03-22T12:39:02;10.50;99.90
10336;DHT22;5213;53.548;9.930;2024-03-22T12:41:28;10.50;99.90
10336;DHT22;5213;53.548;9.930;2024-03-22T12:43:55;10.50;99.90
10336;DHT22;5213;53.548;9.930;2024-03-22T12:46:21;10.00;99.90
10336;DHT22;5213;53.548;9.930;2024-03-22T12:48:46;10.10;99.90
10336;DHT22;5213;53.548;9.930;2024-03-22T12:51:12;10.40;99.90
10336;DHT22;5213;53.548;9.930;2024-03-22T12:53:37;10.60;99.90
10336;DHT22;5213;53.548;9.930;2024-03-22T12:56:04;10.20;99.90
10336;DHT22;5213;53.548;9.930;2024-03-22T12:58:30;10.50;99.90
10336;DHT22;5213;53.548;9.930;2024-03-22T13:00:57;10.50;99.90
10336;DHT22;5213;53.548;9.930;2024-03-22T13:03:22;10.80;99.90
10336;DHT22;5213;53.548;9.930;2024-03-22T13:05:48;10.40;99.90
10336;DHT22;5213;53.548;9.930;2024-03-22T13:08:13;10.50;99.90
10336;DHT22;5213;53.548;9.930;2024-03-22T13:10:39;10.70;99.90
10336;DHT22;5213;53.548;9.930;2024-03-22T13:13:09;10.80;70.00
10336;DHT22;5213;53.548;9.930;2024-03-22T13:15:34;10.70;18.20
10336;DHT22;5213;53.548;9.930;2024-03-22T13:18:02;10.80;1.00
10336;DHT22;5213;53.548;9.930;2024-03-22T13:20:28;11.30;1.00
10336;DHT22;5213;53.548;9.930;2024-03-22T13:22:53;10.30;1.00
10336;DHT22;5213;53.548;9.930;2024-03-22T13:25:19;10.70;1.00
10336;DHT22;5213;53.548;9.930;2024-03-22T13:27:45;10.70;1.00
10336;DHT22;5213;53.548;9.930;2024-03-22T13:30:10;10.70;1.00
10336;DHT22;5213;53.548;9.930;2024-03-22T13:32:37;10.70;1.00
10336;DHT22;5213;53.548;9.930;2024-03-22T13:35:04;9.80;1.00
10336;DHT22;5213;53.548;9.930;2024-03-22T13:37:30;10.50;1.00
10336;DHT22;5213;53.548;9.930;2024-03-22T13:39:56;10.80;1.00
10336;DHT22;5213;53.548;9.930;2024-03-22T13:42:22;10.50;12.40
10336;DHT22;5213;53.548;9.930;2024-03-22T13:44:47;10.40;36.80
10336;DHT22;5213;53.548;9.930;2024-03-22T13:47:13;10.00;12.50
10336;DHT22;5213;53.548;9.930;2024-03-22T13:49:39;10.20;58.20
10336;DHT22;5213;53.548;9.930;2024-03-22T13:52:08;10.10;61.80
10336;DHT22;5213;53.548;9.930;2024-03-22T13:54:34;10.10;99.90
10336;DHT22;5213;53.548;9.930;2024-03-22T13:57:00;9.90;75.30
10336;DHT22;5213;53.548;9.930;2024-03-22T13:59:26;10.20;32.20
10336;DHT22;5213;53.548;9.930;2024-03-22T14:01:52;10.10;1.00
10336;DHT22;5213;53.548;9.930;2024-03-22T14:04:18;10.50;1.00
10336;DHT22;5213;53.548;9.930;2024-03-22T14:06:45;10.60;1.00
10336;DHT22;5213;53.548;9.930;2024-03-22T14:09:11;10.40;1.00
10336;DHT22;5213;53.548;9.930;2024-03-22T14:11:39;10.50;1.00
10336;DHT22;5213;53.548;9.930;2024-03-22T14:14:04;10.50;1.00
10336;DHT22;5213;53.548;9.930;2024-03-22T14:16:30;11.90;1.00
10336;DHT22;5213;53.548;9.930;2024-03-22T14:18:56;10.80;1.00
10336;DHT22;5213;53.548;9.930;2024-03-22T14:21:22;10.50;1.00
10336;DHT22;5213;53.548;9.930;2024-03-22T14:23:48;10.30;1.00
10336;DHT22;5213;53.548;9.930;2024-03-22T14:26:15;10.60;1.00
10336;DHT22;5213;53.548;9.930;2024-03-22T14:28:41;9.70;1.00
10336;DHT22;5213;53.548;9.930;2024-03-22T14:31:07;10.70;1.00
10336;DHT22;5213;53.548;9.930;2024-03-22T14:33:37;9.70;1.00
10336;DHT22;5213;53.548;9.930;2024-03-22T14:36:03;11.20;1.00
10336;DHT22;5213;53.548;9.930;2024-03-22T14:38:30;10.00;1.00
10336;DHT22;5213;53.548;9.930;2024-03-22T14:40:55;10.00;1.00
10336;DHT22;5213;53.548;9.930;2024-03-22T14:43:26;9.60;1.00
10336;DHT22;5213;53.548;9.930;2024-03-22T14:45:55;10.00;1.00
10336;DHT22;5213;53.548;9.930;2024-03-22T14:48:21;10.10;1.00
10336;DHT22;5213;53.548;9.930;2024-03-22T14:50:47;10.00;1.00
10336;DHT22;5213;53.548;9.930;2024-03-22T14:53:17;9.90;1.00
10336;DHT22;5213;53.548;9.930;2024-03-22T14:55:57;9.90;1.00
10336;DHT22;5213;53.548;9.930;2024-03-22T14:58:30;9.80;1.00
10336;DHT22;5213;53.548;9.930;2024-03-22T15:00:58;9.70;1.00
10336;DHT22;5213;53.548;9.930;2024-03-22T15:03:23;9.70;1.00
10336;DHT22;5213;53.548;9.930;2024-03-22T15:05:57;9.80;1.00
10336;DHT22;5213;53.548;9.930;2024-03-22T15:08:23;9.70;1.00
10336;DHT22;5213;53.548;9.930;2024-03-22T15:10:49;9.70;1.00
10336;DHT22;5213;53.548;9.930;2024-03-22T15:13:16;9.30;1.00
10336;DHT22;5213;53.548;9.930;2024-03-22T15:15:42;9.70;1.00
10336;DHT22;5213;53.548;9.930;2024-03-22T15:18:09;9.80;1.00
10336;DHT22;5213;53.548;9.930;2024-03-22T15:20:35;9.90;1.00
10336;DHT22;5213;53.548;9.930;2024-03-22T15:23:01;10.10;1.00
10336;DHT22;5213;53.548;9.930;2024-03-22T15:25:27;10.00;1.00
10336;DHT22;5213;53.548;9.930;2024-03-22T15:27:53;10.00;1.00
10336;DHT22;5213;53.548;9.930;2024-03-22T15:30:19;10.00;1.00
10336;DHT22;5213;53.548;9.930;2024-03-22T15:32:45;10.10;1.00
10336;DHT22;5213;53.548;9.930;2024-03-22T15:35:11;10.50;1.00
10336;DHT22;5213;53.548;9.930;2024-03-22T15:37:40;10.20;1.00
10336;DHT22;5213;53.548;9.930;2024-03-22T15:40:09;10.30;1.00
10336;DHT22;5213;53.548;9.930;2024-03-22T15:42:35;10.20;1.00
10336;DHT22;5213;53.548;9.930;2024-03-22T15:45:01;10.20;1.00
10336;DHT22;5213;53.548;9.930;2024-03-22T15:47:31;10.20;1.00
10336;DHT22;5213;53.548;9.930;2024-03-22T15:49:58;9.60;1.00
10336;DHT22;5213;53.548;9.930;2024-03-22T15:52:23;10.00;1.00
10336;DHT22;5213;53.548;9.930;2024-03-22T15:54:49;10.00;1.00
10336;DHT22;5213;53.548;9.930;2024-03-22T15:57:15;10.10;1.00
10336;DHT22;5213;53.548;9.930;2024-03-22T15:59:41;10.00;1.00